Time;durP1;ratioP1;P1;durP2;ratioP2;P2;SDS_P1;SDS_P2;PMS_P1;PMS_P2;Temp;Humidity;BMP_temperature;BMP_pressure;BME280_temperature;BME280_humidity;BME280_pressure;Samples;Min_cycle;Max_cycle;Signal;HPM_P1;HPM_P2
2022/08/26 00:00:03;;;;;;;;;;;;;;;19.16;100.00;101415.97;6540136;22;20323;-85
2022/08/26 00:02:35;;;;;;;;;;;;;;;19.16;100.00;101413.25;6542381;22;19934;-85
2022/08/26 00:05:06;;;;;;;;;;;;;;;19.16;100.00;101416.84;6544659;22;19908;-84
2022/08/26 00:07:37;;;;;;;;;;;;;;;19.14;100.00;101412.63;6518820;22;19965;-85
2022/08/26 00:10:10;;;;;;;;;;;;;;;19.10;100.00;101414.84;6547889;22;20291;-85
2022/08/26 00:12:41;;;;;;;;;;;;;;;19.07;100.00;101416.06;6545846;22;20314;-85
2022/08/26 00:15:14;;;;;;;;;;;;;;;19.07;100.00;101415.22;6544695;22;19907;-85
2022/08/26 00:17:45;;;;;;;;;;;;;;;19.02;100.00;101417.63;6542363;22;19911;-85
2022/08/26 00:20:19;;;;;;;;;;;;;;;19.02;100.00;101425.75;6514170;22;19914;-85
2022/08/26 00:22:50;;;;;;;;;;;;;;;18.97;100.00;101423.59;6540232;22;19911;-85
2022/08/26 00:25:21;;;;;;;;;;;;;;;18.93;100.00;101422.28;6540798;22;19904;-85
2022/08/26 00:27:52;;;;;;;;;;;;;;;18.90;100.00;101425.38;6514274;22;19911;-85
2022/08/26 00:30:27;;;;;;;;;;;;;;;18.87;100.00;101433.84;6539703;22;20353;-85
2022/08/26 00:32:58;;;;;;;;;;;;;;;18.86;100.00;101430.31;6540442;22;19908;-84
2022/08/26 00:35:30;;;;;;;;;;;;;;;18.86;100.00;101427.59;6513798;22;19910;-85
2022/08/26 00:38:02;;;;;;;;;;;;;;;18.91;100.00;101427.03;6514808;22;20341;-85
2022/08/26 00:40:35;;;;;;;;;;;;;;;18.91;100.00;101437.00;6521230;22;20238;-84
2022/08/26 00:43:07;;;;;;;;;;;;;;;18.91;100.00;101440.53;6526537;22;19938;-84
2022/08/26 00:45:44;;;;;;;;;;;;;;;18.87;100.00;101440.06;6555709;22;19911;-84
2022/08/26 00:48:18;;;;;;;;;;;;;;;18.89;100.00;101437.19;6525604;22;19907;-85
2022/08/26 00:50:53;;;;;;;;;;;;;;;18.92;100.00;101427.88;6551387;22;19908;-85
2022/08/26 00:53:27;;;;;;;;;;;;;;;18.92;100.00;101430.59;6551010;22;19994;-85
2022/08/26 00:56:00;;;;;;;;;;;;;;;18.91;100.00;101423.50;6550667;22;19962;-84
2022/08/26 00:58:32;;;;;;;;;;;;;;;18.92;100.00;101436.00;6544798;22;20412;-85
2022/08/26 01:01:04;;;;;;;;;;;;;;;18.94;100.00;101436.66;6522663;22;19917;-85
2022/08/26 01:03:35;;;;;;;;;;;;;;;18.95;100.00;101433.78;6537660;22;19895;-84
2022/08/26 01:06:08;;;;;;;;;;;;;;;18.98;100.00;101435.25;6543329;22;19910;-85
2022/08/26 01:08:39;;;;;;;;;;;;;;;19.01;100.00;101438.44;6568658;22;19903;-85
2022/08/26 01:11:11;;;;;;;;;;;;;;;19.03;100.00;101438.25;6561803;22;19918;-85
2022/08/26 01:13:42;;;;;;;;;;;;;;;19.04;100.00;101429.13;6548015;22;19907;-85
2022/08/26 01:16:15;;;;;;;;;;;;;;;19.06;100.00;101444.13;6545460;22;19904;-85
2022/08/26 01:18:47;;;;;;;;;;;;;;;19.08;100.00;101441.25;6545844;22;19914;-85
2022/08/26 01:21:18;;;;;;;;;;;;;;;19.04;100.00;101435.34;6547241;22;19947;-84
2022/08/26 01:23:50;;;;;;;;;;;;;;;19.05;100.00;101434.31;6542408;22;19907;-84
2022/08/26 01:26:24;;;;;;;;;;;;;;;19.05;100.00;101431.63;6514456;22;19911;-84
2022/08/26 01:28:57;;;;;;;;;;;;;;;19.07;100.00;101424.19;6539451;22;19990;-84
2022/08/26 01:31:30;;;;;;;;;;;;;;;19.04;100.00;101419.13;6513517;22;19907;-84
2022/08/26 01:34:04;;;;;;;;;;;;;;;19.06;100.00;101430.59;6513195;22;19911;-85
2022/08/26 01:36:37;;;;;;;;;;;;;;;19.05;100.00;101428.91;6513291;22;19911;-84
2022/08/26 01:39:08;;;;;;;;;;;;;;;19.05;100.00;101423.50;6512586;22;19931;-84
2022/08/26 01:41:39;;;;;;;;;;;;;;;19.08;100.00;101422.31;6540305;22;19911;-84
2022/08/26 01:44:14;;;;;;;;;;;;;;;19.08;100.00;101427.72;6513228;22;20222;-85
2022/08/26 01:46:47;;;;;;;;;;;;;;;19.11;100.00;101430.06;6512681;22;19914;-84
2022/08/26 01:49:19;;;;;;;;;;;;;;;19.12;100.00;101429.03;6539702;22;19912;-85
2022/08/26 01:51:52;;;;;;;;;;;;;;;19.10;100.00;101432.94;6511977;22;20226;-84
2022/08/26 01:54:23;;;;;;;;;;;;;;;19.10;100.00;101438.34;6540202;22;19904;-84
2022/08/26 01:56:55;;;;;;;;;;;;;;;19.07;100.00;101432.28;6513539;22;19974;-84
2022/08/26 01:59:27;;;;;;;;;;;;;;;19.06;100.00;101436.00;6539342;22;19907;-84
2022/08/26 02:01:58;;;;;;;;;;;;;;;19.06;100.00;101435.19;6539029;22;20322;-85
2022/08/26 02:04:34;;;;;;;;;;;;;;;19.06;100.00;101433.31;6512137;22;19908;-84
2022/08/26 02:07:07;;;;;;;;;;;;;;;19.05;100.00;101439.72;6512262;22;19915;-84
2022/08/26 02:09:39;;;;;;;;;;;;;;;19.04;100.00;101431.81;6539725;22;19908;-85
2022/08/26 02:12:11;;;;;;;;;;;;;;;19.07;100.00;101444.94;6512748;22;19907;-85
2022/08/26 02:14:49;;;;;;;;;;;;;;;19.07;100.00;101447.66;6540270;22;19907;-85
2022/08/26 02:17:26;;;;;;;;;;;;;;;19.06;100.00;101444.13;6514131;22;19926;-84
2022/08/26 02:19:57;;;;;;;;;;;;;;;19.02;100.00;101453.63;6513872;22;19958;-84
2022/08/26 02:22:29;;;;;;;;;;;;;;;18.98;100.00;101452.31;6514312;22;19903;-84
2022/08/26 02:25:10;;;;;;;;;;;;;;;18.96;100.00;101457.06;6541030;22;20315;-84
2022/08/26 02:27:42;;;;;;;;;;;;;;;18.91;100.00;101459.47;6513972;22;19997;-85
2022/08/26 02:30:21;;;;;;;;;;;;;;;18.91;100.00;101464.88;6541068;22;19911;-84
2022/08/26 02:32:53;;;;;;;;;;;;;;;18.90;100.00;101457.81;6513520;22;19908;-84
2022/08/26 02:35:24;;;;;;;;;;;;;;;18.86;100.00;101467.28;6513966;22;19915;-84
2022/08/26 02:37:55;;;;;;;;;;;;;;;18.81;100.00;101467.81;6540717;22;20752;-84
2022/08/26 02:40:29;;;;;;;;;;;;;;;18.76;100.00;101459.41;6539847;22;19908;-84
2022/08/26 02:43:00;;;;;;;;;;;;;;;18.70;100.00;101465.50;6514607;22;19903;-84
2022/08/26 02:45:32;;;;;;;;;;;;;;;18.65;100.00;101473.31;6513618;22;19908;-84
2022/08/26 02:48:07;;;;;;;;;;;;;;;18.61;100.00;101459.34;6514411;22;19907;-84
2022/08/26 02:50:39;;;;;;;;;;;;;;;18.57;100.00;101462.59;6541010;22;20245;-84
2022/08/26 02:53:11;;;;;;;;;;;;;;;18.52;100.00;101461.25;6513494;22;19912;-84
2022/08/26 02:55:42;;;;;;;;;;;;;;;18.50;100.00;101460.59;6540922;22;19910;-84
2022/08/26 02:58:14;;;;;;;;;;;;;;;18.49;100.00;101467.00;6540759;22;19910;-84
2022/08/26 03:00:46;;;;;;;;;;;;;;;18.47;100.00;101470.94;6541023;22;19903;-84
2022/08/26 03:03:18;;;;;;;;;;;;;;;18.42;100.00;101462.50;6541467;22;19911;-84
2022/08/26 03:05:49;;;;;;;;;;;;;;;18.38;100.00;101464.75;6540832;22;19903;-84
2022/08/26 03:08:21;;;;;;;;;;;;;;;18.35;100.00;101467.78;6541489;22;19998;-84
2022/08/26 03:10:52;;;;;;;;;;;;;;;18.35;100.00;101465.09;6541510;22;19904;-84
2022/08/26 03:13:23;;;;;;;;;;;;;;;18.37;100.00;101465.75;6542328;22;19931;-84
2022/08/26 03:15:55;;;;;;;;;;;;;;;18.33;100.00;101459.84;6539620;22;36132;-84
2022/08/26 03:18:26;;;;;;;;;;;;;;;18.35;100.00;101461.56;6514431;22;19910;-84
2022/08/26 03:20:58;;;;;;;;;;;;;;;18.36;100.00;101455.97;6542465;22;19907;-84
2022/08/26 03:23:29;;;;;;;;;;;;;;;18.37;100.00;101463.03;6542398;22;19904;-84
2022/08/26 03:26:00;;;;;;;;;;;;;;;18.39;100.00;101463.72;6540975;22;20326;-84
2022/08/26 03:28:31;;;;;;;;;;;;;;;18.42;100.00;101460.66;6541731;22;20242;-84
2022/08/26 03:31:02;;;;;;;;;;;;;;;18.48;100.00;101465.34;6513610;22;19908;-84
2022/08/26 03:33:34;;;;;;;;;;;;;;;18.55;100.00;101464.63;6513690;22;19910;-84
2022/08/26 03:36:06;;;;;;;;;;;;;;;18.60;100.00;101470.31;6541215;22;19911;-84
2022/08/26 03:38:37;;;;;;;;;;;;;;;18.64;100.00;101464.38;6514832;22;19907;-85
2022/08/26 03:41:11;;;;;;;;;;;;;;;18.69;100.00;101470.09;6540199;22;19918;-84
2022/08/26 03:43:42;;;;;;;;;;;;;;;18.75;100.00;101462.28;6541520;22;19927;-84
2022/08/26 03:46:13;;;;;;;;;;;;;;;18.78;100.00;101476.28;6515123;22;20340;-84
2022/08/26 03:48:45;;;;;;;;;;;;;;;18.78;100.00;101465.47;6541636;22;20030;-83
2022/08/26 03:51:17;;;;;;;;;;;;;;;18.76;100.00;101466.66;6515333;22;19904;-84
2022/08/26 03:53:48;;;;;;;;;;;;;;;18.76;100.00;101469.34;6514363;22;19911;-84
2022/08/26 03:56:20;;;;;;;;;;;;;;;18.77;100.00;101469.16;6541176;22;20348;-84
2022/08/26 03:58:51;;;;;;;;;;;;;;;18.79;100.00;101471.69;6513926;22;19942;-84
2022/08/26 04:01:23;;;;;;;;;;;;;;;18.81;100.00;101475.91;6514242;22;19907;-84
2022/08/26 04:03:57;;;;;;;;;;;;;;;18.85;100.00;101471.84;6513792;22;19957;-84
2022/08/26 04:06:30;;;;;;;;;;;;;;;18.86;100.00;101481.66;6513605;22;20368;-84
2022/08/26 04:09:06;;;;;;;;;;;;;;;18.89;100.00;101478.56;6512643;22;19907;-84
2022/08/26 04:11:39;;;;;;;;;;;;;;;18.91;100.00;101475.69;6513673;22;19907;-84
2022/08/26 04:14:13;;;;;;;;;;;;;;;18.92;100.00;101469.25;6540826;22;20279;-84
2022/08/26 04:16:44;;;;;;;;;;;;;;;18.93;100.00;101468.22;6513454;22;19903;-84
2022/08/26 04:19:16;;;;;;;;;;;;;;;18.94;100.00;101471.78;6541217;22;19991;-84
2022/08/26 04:21:50;;;;;;;;;;;;;;;18.92;100.00;101466.56;6541639;22;19908;-84
2022/08/26 04:24:23;;;;;;;;;;;;;;;18.93;100.00;101468.22;6513234;22;19915;-84
2022/08/26 04:26:55;;;;;;;;;;;;;;;18.89;100.00;101470.44;6540515;22;19908;-84
2022/08/26 04:29:26;;;;;;;;;;;;;;;18.88;100.00;101465.22;6513463;22;20010;-85
2022/08/26 04:31:57;;;;;;;;;;;;;;;18.87;100.00;101467.09;6540744;22;19943;-84
2022/08/26 04:34:29;;;;;;;;;;;;;;;18.86;100.00;101470.84;6539209;22;19910;-84
2022/08/26 04:37:00;;;;;;;;;;;;;;;18.86;100.00;101464.56;6512766;22;20022;-84
2022/08/26 04:39:31;;;;;;;;;;;;;;;18.85;100.00;101468.31;6538303;22;19907;-83
2022/08/26 04:42:03;;;;;;;;;;;;;;;18.85;100.00;101471.84;6539920;22;19910;-84
2022/08/26 04:44:35;;;;;;;;;;;;;;;18.84;100.00;101472.03;6538540;22;19950;-84
2022/08/26 04:47:06;;;;;;;;;;;;;;;18.81;100.00;101480.47;6538244;22;19911;-83
2022/08/26 04:49:37;;;;;;;;;;;;;;;18.80;100.00;101479.63;6538629;22;19961;-84
2022/08/26 04:52:08;;;;;;;;;;;;;;;18.81;100.00;101475.91;6512907;22;20301;-84
2022/08/26 04:54:40;;;;;;;;;;;;;;;18.79;100.00;101480.63;6511924;22;19907;-84
2022/08/26 04:57:12;;;;;;;;;;;;;;;18.82;100.00;101477.63;6511635;22;19907;-84
2022/08/26 04:59:43;;;;;;;;;;;;;;;18.84;100.00;101474.72;6511691;22;19907;-84
2022/08/26 05:02:14;;;;;;;;;;;;;;;18.86;100.00;101475.38;6540443;22;20234;-84
2022/08/26 05:04:45;;;;;;;;;;;;;;;18.87;100.00;101475.19;6513645;22;19907;-84
2022/08/26 05:07:17;;;;;;;;;;;;;;;18.90;100.00;101476.72;6512715;22;19907;-84
2022/08/26 05:09:48;;;;;;;;;;;;;;;18.93;100.00;101481.75;6540024;22;20350;-84
2022/08/26 05:12:19;;;;;;;;;;;;;;;18.96;100.00;101484.09;6539751;22;19923;-84
2022/08/26 05:14:52;;;;;;;;;;;;;;;18.99;100.00;101482.91;6511570;22;19945;-84
2022/08/26 05:17:23;;;;;;;;;;;;;;;19.01;100.00;101487.09;6512956;22;20334;-84
2022/08/26 05:19:54;;;;;;;;;;;;;;;19.03;100.00;101485.03;6539529;22;19903;-84
2022/08/26 05:22:25;;;;;;;;;;;;;;;19.10;100.00;101481.63;6552355;22;19907;-83
2022/08/26 05:24:57;;;;;;;;;;;;;;;19.14;100.00;101480.22;6538284;22;19911;-83
2022/08/26 05:27:28;;;;;;;;;;;;;;;19.19;100.00;101486.75;6539309;22;19915;-83
2022/08/26 05:29:59;;;;;;;;;;;;;;;19.22;100.00;101486.38;6540256;22;19914;-83
2022/08/26 05:32:30;;;;;;;;;;;;;;;19.25;100.00;101486.03;6513727;22;19907;-83
2022/08/26 05:35:02;;;;;;;;;;;;;;;19.33;100.00;101495.06;6539279;22;19965;-84
2022/08/26 05:37:33;;;;;;;;;;;;;;;19.37;100.00;101491.84;6512953;22;19907;-84
2022/08/26 05:40:04;;;;;;;;;;;;;;;19.39;100.00;101489.78;6540984;22;19908;-84
2022/08/26 05:42:36;;;;;;;;;;;;;;;19.43;100.00;101485.66;6511436;22;20262;-83
2022/08/26 05:45:07;;;;;;;;;;;;;;;19.47;100.00;101491.53;6511716;22;20306;-84
2022/08/26 05:47:38;;;;;;;;;;;;;;;19.51;100.00;101490.13;6539270;22;19912;-83
2022/08/26 05:50:10;;;;;;;;;;;;;;;19.56;100.00;101498.53;6540907;22;19903;-84
2022/08/26 05:52:41;;;;;;;;;;;;;;;19.66;100.00;101498.28;6513255;22;20343;-84
2022/08/26 05:55:14;;;;;;;;;;;;;;;19.72;100.00;101507.50;6540586;22;19924;-84
2022/08/26 05:57:45;;;;;;;;;;;;;;;19.75;100.00;101512.59;6540977;22;19957;-83
2022/08/26 06:00:16;;;;;;;;;;;;;;;19.81;100.00;101509.97;6542011;22;20285;-83
2022/08/26 06:02:47;;;;;;;;;;;;;;;19.88;100.00;101520.03;6512817;22;19922;-83
2022/08/26 06:05:18;;;;;;;;;;;;;;;19.93;100.00;101521.19;6512964;22;19908;-83
2022/08/26 06:10:59;;;;;;;;;;;;;;;20.06;100.00;101525.91;6410903;23;20220;-83
2022/08/26 06:13:30;;;;;;;;;;;;;;;20.13;100.00;101531.44;6494545;22;19903;-83
2022/08/26 06:16:03;;;;;;;;;;;;;;;20.19;100.00;101530.66;6514472;22;19974;-84
2022/08/26 06:18:36;;;;;;;;;;;;;;;20.27;100.00;101529.72;6542768;22;19907;-83
2022/08/26 06:21:16;;;;;;;;;;;;;;;20.30;100.00;101527.47;6516231;22;19966;-83
2022/08/26 06:26:39;;;;;;;;;;;;;;;20.43;100.00;101534.91;6542763;22;20287;-83
2022/08/26 06:29:10;;;;;;;;;;;;;;;20.48;100.00;101537.06;6541678;22;19910;-83
2022/08/26 06:31:41;;;;;;;;;;;;;;;20.51;100.00;101540.22;6514644;22;19914;-83
2022/08/26 06:34:13;;;;;;;;;;;;;;;20.59;100.00;101531.13;6542098;22;19919;-84
2022/08/26 06:36:46;;;;;;;;;;;;;;;20.64;100.00;101538.72;6542415;22;20209;-83
2022/08/26 06:39:17;;;;;;;;;;;;;;;20.71;100.00;101536.91;6515418;22;19989;-83
2022/08/26 06:41:48;;;;;;;;;;;;;;;20.85;100.00;101546.84;6542371;22;19904;-84
2022/08/26 06:44:19;;;;;;;;;;;;;;;20.95;100.00;101544.66;6542479;22;19922;-83
2022/08/26 06:46:50;;;;;;;;;;;;;;;20.98;100.00;101548.84;6514914;22;19907;-83
2022/08/26 06:49:22;;;;;;;;;;;;;;;21.02;100.00;101544.72;6543237;22;19961;-84
2022/08/26 06:51:56;;;;;;;;;;;;;;;21.05;100.00;101548.91;6567699;22;19954;-83
2022/08/26 06:54:30;;;;;;;;;;;;;;;21.09;100.00;101545.63;6570650;22;19924;-82
2022/08/26 06:57:01;;;;;;;;;;;;;;;21.12;100.00;101549.81;6570649;22;19918;-83
2022/08/26 06:59:32;;;;;;;;;;;;;;;21.15;100.00;101552.13;6568815;22;19912;-82
2022/08/26 07:02:04;;;;;;;;;;;;;;;21.21;100.00;101554.03;6549390;22;19963;-83
2022/08/26 07:04:36;;;;;;;;;;;;;;;21.27;100.00;101552.44;6546162;22;19953;-83
2022/08/26 07:07:07;;;;;;;;;;;;;;;21.35;100.00;101552.28;6545098;22;19911;-83
2022/08/26 07:09:38;;;;;;;;;;;;;;;21.40;100.00;101549.00;6545175;22;19904;-83
2022/08/26 07:12:09;;;;;;;;;;;;;;;21.42;100.00;101547.75;6541962;22;19995;-83
2022/08/26 07:14:40;;;;;;;;;;;;;;;21.47;100.00;101542.59;6514520;22;19970;-83
2022/08/26 07:17:12;;;;;;;;;;;;;;;21.58;100.00;101546.66;6541559;22;19912;-83
2022/08/26 07:19:43;;;;;;;;;;;;;;;21.71;100.00;101541.31;6541273;22;19911;-82
2022/08/26 07:22:14;;;;;;;;;;;;;;;21.92;100.00;101553.13;6542165;22;19908;-84
2022/08/26 07:24:45;;;;;;;;;;;;;;;21.93;100.00;101546.63;6542356;22;20045;-83
2022/08/26 07:27:17;;;;;;;;;;;;;;;22.03;100.00;101554.44;6514793;22;19917;-84
2022/08/26 07:29:48;;;;;;;;;;;;;;;22.15;100.00;101547.38;6541484;22;20009;-83
2022/08/26 07:32:19;;;;;;;;;;;;;;;22.24;100.00;101557.03;6541116;22;19987;-83
2022/08/26 07:34:50;;;;;;;;;;;;;;;22.35;100.00;101549.38;6541531;22;19970;-83
2022/08/26 07:37:22;;;;;;;;;;;;;;;22.50;100.00;101552.78;6541984;22;19957;-83
2022/08/26 07:39:53;;;;;;;;;;;;;;;22.71;100.00;101556.41;6540880;22;19904;-83
2022/08/26 07:42:24;;;;;;;;;;;;;;;22.77;100.00;101550.97;6514411;22;19907;-83
2022/08/26 07:44:55;;;;;;;;;;;;;;;22.89;100.00;101556.63;6540896;22;19938;-83
2022/08/26 07:47:26;;;;;;;;;;;;;;;23.02;100.00;101563.97;6541102;22;19911;-84
2022/08/26 07:49:58;;;;;;;;;;;;;;;23.09;100.00;101569.44;6541694;22;19907;-83
2022/08/26 07:52:29;;;;;;;;;;;;;;;23.04;100.00;101564.59;6540682;22;19915;-83
2022/08/26 07:55:01;;;;;;;;;;;;;;;23.06;100.00;101567.16;6541258;22;19903;-83
2022/08/26 07:57:33;;;;;;;;;;;;;;;23.21;100.00;101565.03;6541229;22;20246;-83
2022/08/26 08:00:05;;;;;;;;;;;;;;;23.30;100.00;101562.97;6513961;22;19914;-83
2022/08/26 08:02:37;;;;;;;;;;;;;;;23.25;100.00;101571.75;6541752;22;19915;-83
2022/08/26 08:05:08;;;;;;;;;;;;;;;23.31;100.00;101578.25;6542866;22;19908;-83
2022/08/26 08:07:39;;;;;;;;;;;;;;;23.37;100.00;101572.81;6542420;22;20211;-83
2022/08/26 08:10:12;;;;;;;;;;;;;;;23.43;100.00;101571.13;6541372;22;19903;-83
2022/08/26 08:12:43;;;;;;;;;;;;;;;23.38;100.00;101573.63;6541982;22;19985;-83
2022/08/26 08:15:15;;;;;;;;;;;;;;;23.36;100.00;101576.56;6542834;22;19934;-83
2022/08/26 08:17:47;;;;;;;;;;;;;;;23.48;100.00;101578.69;6542774;22;19912;-83
2022/08/26 08:20:18;;;;;;;;;;;;;;;23.57;100.00;101571.97;6514644;22;19931;-82
2022/08/26 08:22:50;;;;;;;;;;;;;;;23.47;100.00;101572.38;6540514;22;19930;-83
2022/08/26 08:25:21;;;;;;;;;;;;;;;23.59;100.00;101573.41;6540889;22;20465;-82
2022/08/26 08:27:52;;;;;;;;;;;;;;;23.79;100.00;101580.75;6541142;22;19911;-83
2022/08/26 08:30:23;;;;;;;;;;;;;;;23.89;100.00;101577.59;6541449;22;19915;-83
2022/08/26 08:32:55;;;;;;;;;;;;;;;23.93;100.00;101581.53;6540407;22;19907;-83
2022/08/26 08:35:26;;;;;;;;;;;;;;;23.82;100.00;101574.03;6540145;22;19908;-83
2022/08/26 08:37:57;;;;;;;;;;;;;;;23.82;100.00;101574.03;6540936;22;19911;-82
2022/08/26 08:40:28;;;;;;;;;;;;;;;23.91;100.00;101575.47;6541406;22;19957;-83
2022/08/26 08:43:04;;;;;;;;;;;;;;;23.95;100.00;101574.84;6541022;22;19910;-83
2022/08/26 08:45:43;;;;;;;;;;;;;;;24.06;100.00;101569.78;6513729;22;19910;-83
2022/08/26 08:48:18;;;;;;;;;;;;;;;24.15;100.00;101574.78;6540742;22;19908;-83
2022/08/26 08:50:52;;;;;;;;;;;;;;;24.29;100.00;101567.38;6540788;22;19961;-83
2022/08/26 08:53:29;;;;;;;;;;;;;;;24.34;100.00;101573.03;6514160;22;20246;-83
2022/08/26 08:56:06;;;;;;;;;;;;;;;24.24;100.00;101569.91;6540684;22;19907;-83
2022/08/26 08:58:56;;;;;;;;;;;;;;;23.93;100.00;101581.53;6541297;22;19959;-83
2022/08/26 09:01:27;;;;;;;;;;;;;;;23.57;100.00;101585.56;6541664;22;19907;-83
2022/08/26 09:03:58;;;;;;;;;;;;;;;23.53;100.00;101584.31;6514762;22;19903;-83
2022/08/26 09:06:29;;;;;;;;;;;;;;;23.62;100.00;101579.50;6514144;22;20222;-83
2022/08/26 09:09:02;;;;;;;;;;;;;;;23.54;100.00;101586.81;6541054;22;19922;-83
2022/08/26 09:11:34;;;;;;;;;;;;;;;23.51;100.00;101591.84;6542611;22;19904;-83
2022/08/26 09:14:10;;;;;;;;;;;;;;;23.66;100.00;101592.47;6542058;22;19915;-83
2022/08/26 09:16:50;;;;;;;;;;;;;;;23.99;100.00;101586.16;6541085;22;19908;-83
2022/08/26 09:19:29;;;;;;;;;;;;;;;24.51;100.00;101580.72;6540921;22;19937;-83
2022/08/26 09:22:00;;;;;;;;;;;;;;;24.87;100.00;101580.09;6541080;22;19954;-83
2022/08/26 09:24:33;;;;;;;;;;;;;;;25.08;100.00;101581.63;6515335;22;19907;-82
2022/08/26 09:27:04;;;;;;;;;;;;;;;25.20;100.00;101586.41;6540999;22;20001;-83
2022/08/26 09:29:41;;;;;;;;;;;;;;;25.16;100.00;101587.88;6542188;22;19954;-83
2022/08/26 09:32:15;;;;;;;;;;;;;;;24.98;100.00;101594.09;6539358;22;19907;-83
2022/08/26 09:35:00;;;;;;;;;;;;;;;24.92;100.00;101596.66;6540400;22;19983;-83
2022/08/26 09:37:39;;;;;;;;;;;;;;;24.94;100.00;101599.16;6541067;22;19903;-83
2022/08/26 09:40:11;;;;;;;;;;;;;;;24.88;100.00;101597.34;6540603;22;19910;-83
2022/08/26 09:42:42;;;;;;;;;;;;;;;24.79;100.00;101596.75;6542517;22;19904;-83
2022/08/26 09:45:14;;;;;;;;;;;;;;;24.71;100.00;101597.00;6539656;22;20368;-82
2022/08/26 09:47:45;;;;;;;;;;;;;;;24.80;100.00;101598.41;6513515;22;19927;-83
2022/08/26 09:50:25;;;;;;;;;;;;;;;24.82;100.00;101590.84;6540691;22;19907;-81
2022/08/26 09:53:17;;;;;;;;;;;;;;;24.89;100.00;101597.13;6538549;22;20254;-81
2022/08/26 09:55:50;;;;;;;;;;;;;;;25.03;100.00;101597.84;6541129;22;19938;-81
2022/08/26 09:58:34;;;;;;;;;;;;;;;25.12;100.00;101597.59;6543159;22;19910;-81
2022/08/26 10:01:13;;;;;;;;;;;;;;;25.20;100.00;101609.06;6542350;22;19907;-81
2022/08/26 10:03:45;;;;;;;;;;;;;;;24.94;100.00;101601.91;6542512;22;19912;-81
2022/08/26 10:06:16;;;;;;;;;;;;;;;24.62;100.00;101604.59;6543051;22;19969;-81
2022/08/26 10:08:53;;;;;;;;;;;;;;;24.38;100.00;101608.88;6542120;22;20318;-81
2022/08/26 10:11:27;;;;;;;;;;;;;;;24.38;100.00;101606.16;6542466;22;20326;-81
2022/08/26 10:14:02;;;;;;;;;;;;;;;24.31;100.00;101605.34;6543012;22;19907;-81
2022/08/26 10:16:38;;;;;;;;;;;;;;;24.35;100.00;101603.84;6543257;22;19910;-82
2022/08/26 10:19:12;;;;;;;;;;;;;;;24.49;100.00;101608.22;6542642;22;19942;-81
2022/08/26 10:21:54;;;;;;;;;;;;;;;24.58;100.00;101603.38;6542676;22;19903;-81
2022/08/26 10:24:29;;;;;;;;;;;;;;;24.64;100.00;101602.50;6542609;22;19926;-81
2022/08/26 10:27:04;;;;;;;;;;;;;;;24.82;100.00;101598.19;6515460;22;20865;-81
2022/08/26 10:29:41;;;;;;;;;;;;;;;24.98;100.00;101597.69;6515817;22;19904;-81
2022/08/26 10:32:15;;;;;;;;;;;;;;;25.00;100.00;101598.31;6515101;22;19908;-81
2022/08/26 10:34:47;;;;;;;;;;;;;;;24.93;100.00;101602.97;6541659;22;19986;-81
2022/08/26 10:37:20;;;;;;;;;;;;;;;24.79;100.00;101601.34;6542459;22;19942;-81
2022/08/26 10:39:54;;;;;;;;;;;;;;;24.52;100.00;101594.13;6542408;22;19970;-80
2022/08/26 10:42:25;;;;;;;;;;;;;;;24.35;100.00;101598.38;6516704;22;19904;-81
2022/08/26 10:45:02;;;;;;;;;;;;;;;24.46;100.00;101594.19;6543498;22;19936;-81
2022/08/26 10:47:40;;;;;;;;;;;;;;;24.62;100.00;101590.97;6544129;22;19908;-81
2022/08/26 10:50:11;;;;;;;;;;;;;;;24.67;100.00;101602.06;6544333;22;20270;-80
2022/08/26 10:52:57;;;;;;;;;;;;;;;24.65;100.00;101592.41;6548192;22;19938;-81
2022/08/26 10:55:37;;;;;;;;;;;;;;;24.62;100.00;101592.88;6556870;22;19903;-80
2022/08/26 10:58:27;;;;;;;;;;;;;;;24.62;100.00;101595.59;6556034;22;19934;-81
2022/08/26 11:04:05;;;;;;;;;;;;;;;24.35;100.00;101603.84;6551581;22;19907;-80
2022/08/26 11:06:36;;;;;;;;;;;;;;;24.18;100.00;101606.22;6553702;22;19998;-81
2022/08/26 11:09:08;;;;;;;;;;;;;;;23.97;100.00;101607.34;6555286;22;19903;-81
2022/08/26 11:11:39;;;;;;;;;;;;;;;23.90;100.00;101609.25;6554584;22;19904;-80
2022/08/26 11:14:31;;;;;;;;;;;;;;;23.83;100.00;101597.53;6548957;22;19907;-80
2022/08/26 11:17:02;;;;;;;;;;;;;;;23.75;100.00;101602.09;6552784;22;19907;-80
2022/08/26 11:19:40;;;;;;;;;;;;;;;23.64;100.00;101602.75;6553663;22;19903;-80
2022/08/26 11:22:23;;;;;;;;;;;;;;;23.47;100.00;101602.31;6552565;22;19903;-81
2022/08/26 11:24:54;;;;;;;;;;;;;;;23.33;100.00;101598.75;6552299;22;20314;-80
2022/08/26 11:27:35;;;;;;;;;;;;;;;23.37;100.00;101594.59;6550319;22;19917;-80
2022/08/26 11:30:06;;;;;;;;;;;;;;;23.54;100.00;101594.16;6549657;22;20245;-80
2022/08/26 11:32:40;;;;;;;;;;;;;;;23.59;100.00;101607.97;6522629;22;19989;-81
2022/08/26 11:35:24;;;;;;;;;;;;;;;23.54;100.00;101608.59;6550248;22;19927;-81
2022/08/26 11:37:56;;;;;;;;;;;;;;;23.56;100.00;101601.09;6550059;22;19930;-80
2022/08/26 11:40:28;;;;;;;;;;;;;;;23.59;100.00;101603.34;6550499;22;19912;-80
2022/08/26 11:43:04;;;;;;;;;;;;;;;23.64;100.00;101602.75;6523938;22;19915;-80
2022/08/26 11:45:38;;;;;;;;;;;;;;;23.61;100.00;101611.31;6523645;22;19930;-81
2022/08/26 11:48:20;;;;;;;;;;;;;;;23.51;100.00;101603.59;6552467;22;19946;-81
2022/08/26 11:50:52;;;;;;;;;;;;;;;23.44;100.00;101604.63;6552214;22;20797;-82
2022/08/26 11:53:24;;;;;;;;;;;;;;;23.35;100.00;101604.00;6524771;22;19961;-81
2022/08/26 11:55:57;;;;;;;;;;;;;;;23.29;100.00;101610.28;6526079;22;19907;-81
2022/08/26 11:58:28;;;;;;;;;;;;;;;23.10;100.00;101609.22;6549905;22;19991;-82
2022/08/26 12:01:05;;;;;;;;;;;;;;;22.94;100.00;101616.69;6548228;22;19907;-81
2022/08/26 12:03:45;;;;;;;;;;;;;;;22.83;100.00;101611.84;6521593;22;19907;-80
2022/08/26 12:06:22;;;;;;;;;;;;;;;22.93;100.00;101617.75;6548155;22;19907;-81
2022/08/26 12:08:56;;;;;;;;;;;;;;;23.04;100.00;101608.97;6549358;22;20214;-80
2022/08/26 12:11:31;;;;;;;;;;;;;;;23.13;100.00;101614.25;6561095;22;19907;-79
2022/08/26 12:14:14;;;;;;;;;;;;;;;23.21;100.00;101609.44;6566164;22;19903;-79
2022/08/26 12:16:46;;;;;;;;;;;;;;;23.29;100.00;101613.00;6567846;22;19926;-81
2022/08/26 12:19:25;;;;;;;;;;;;;;;23.34;100.00;101615.94;6539465;22;19931;-81
2022/08/26 12:22:17;;;;;;;;;;;;;;;23.35;100.00;101617.59;6552019;22;19942;-81
2022/08/26 12:24:48;;;;;;;;;;;;;;;23.33;100.00;101612.38;6549851;22;19930;-81
2022/08/26 12:27:22;;;;;;;;;;;;;;;23.36;100.00;101606.50;6552450;22;19908;-80
2022/08/26 12:29:59;;;;;;;;;;;;;;;23.42;100.00;101615.72;6545660;22;19908;-81
2022/08/26 12:32:31;;;;;;;;;;;;;;;23.40;100.00;101612.38;6543434;22;20238;-82
2022/08/26 12:35:03;;;;;;;;;;;;;;;23.40;100.00;101615.09;6542892;22;19983;-81
2022/08/26 12:37:36;;;;;;;;;;;;;;;23.52;100.00;101613.41;6542946;22;19943;-82
2022/08/26 12:40:24;;;;;;;;;;;;;;;23.54;100.00;101610.50;6544696;22;20233;-82
2022/08/26 12:42:57;;;;;;;;;;;;;;;23.53;100.00;101612.38;6544667;22;20321;-81
2022/08/26 12:45:29;;;;;;;;;;;;;;;23.52;100.00;101620.75;6548651;22;19903;-82
2022/08/26 12:48:06;;;;;;;;;;;;;;;23.39;100.00;101617.00;6527769;22;19918;-81
2022/08/26 12:50:48;;;;;;;;;;;;;;;23.37;100.00;101618.25;6530046;22;19970;-82
2022/08/26 12:53:21;;;;;;;;;;;;;;;23.24;100.00;101613.63;6527451;22;20253;-82
2022/08/26 12:56:03;;;;;;;;;;;;;;;23.22;100.00;101615.72;6545625;22;19907;-81
2022/08/26 12:58:35;;;;;;;;;;;;;;;23.30;100.00;101611.94;6542676;22;19910;-82
2022/08/26 13:01:07;;;;;;;;;;;;;;;23.44;100.00;101615.50;6543340;22;19908;-81
2022/08/26 13:03:43;;;;;;;;;;;;;;;23.54;100.00;101613.22;6516552;22;19907;-80
2022/08/26 13:06:22;;;;;;;;;;;;;;;23.67;100.00;101620.56;6522162;22;19903;-80